Airfield :
LOGIN :

Register | Disclaimer

   EN    FR    IT 

 










Legend :    VFR   Marginal VFR   IFR   Intensive IFR   Very Intensive IFR
Visi :
Ceiling :
>= 8 km
>= 3000ft
5 to 8 km
1000 to 3000 ft
1500m to 5 km
500 to 1000 ft
800 to 1500m
200 to 500 ft
< 800m
< 200 ft
Symbols :   Thunderstorms  Fog  Heavy snow  Heavy precipitations  Wind > 20 kt
SIGMETs :     Misc.  Thunderstorms  Icing  Turbulence  Mountain Waves  Volcanic Ashes






- Airport Elevation : 779 ft
- IATA code : CMF


LFLB - Chambery / Aix-Les-Bains

CURRENT METAR :
  • 261000Z AUTO VRB02KT 0400 R18/0600N R36/0650U FZFG VV/// M01/M01 Q1033 BECMG 7000 NSW NSC

EXPIRED METARs :
  • 260930Z AUTO VRB02KT 0300 0250 R18/0400N R36/0400N FZFG VV/// M01/M01 Q1034 BECMG 7000 NSW NSC
  • 260900Z AUTO 17002KT 0400 0350 R18/0650N R36/0550U FZFG VV/// M02/M02 Q1033 BECMG 7000 NSW NSC
  • 260830Z AUTO VRB01KT 0700 0300 R18/2000D R36/0275D FZFG VV/// M03/M03 Q1033 TEMPO 3000 BR BECMG NSC
  • 260800Z AUTO 17002KT 4800 BR BKN003 M04/M05 Q1033 TEMPO 0700 BCFG BECMG NSC
  • 260730Z AUTO 17003KT 4800 UP BR BKN004 M06/M06 Q1033 TEMPO 0700 BCFG BECMG NSC

TAF AMD TAF LFLB
Valid from the 26 at 09:00 until the 27 at 09:00 UTC


260958Z 2609/2709 VRB02KT 7000 NSC
TEMPO 2609/2612 3000 BR
PROB40
TEMPO 2609/2611 0300 FZFG VV///
TEMPO 2620/2709 3000 BR
PROB30
TEMPO 2702/2708 0400 FZFG VV///



MET'MAP, your aeronautical weather chart ! - Copyright ORBIFLY December 2007 - Disclaimer

ORBIFLY MET'MAP TEAM :

Programming & Development : Alexandra Zaïnal
Original concept : Baudouin d'Aumeries
Technical & hardware support : Manuel Goepfert
Assistance : Marc-Olivier Méhu

Contact : metmap@orbifly.com




SOURCES & CREDITS :

   NOAA